createdAt,value
2022-09-01T00:01:41.576Z,12.03
2022-09-01T00:10:07.630Z,12.00
2022-09-01T00:18:32.864Z,11.97
2022-09-01T00:26:56.322Z,11.97
2022-09-01T00:35:20.166Z,11.97
2022-09-01T00:43:52.469Z,11.88
2022-09-01T00:52:40.645Z,11.80
2022-09-01T01:01:05.652Z,11.68
2022-09-01T01:09:38.819Z,11.49
2022-09-01T01:18:01.671Z,11.34
2022-09-01T01:26:24.555Z,11.23
2022-09-01T01:34:48.851Z,11.05
2022-09-01T01:43:20.088Z,10.89
2022-09-01T01:51:44.105Z,10.78
2022-09-01T02:00:11.459Z,10.69
2022-09-01T02:08:37.310Z,10.55
2022-09-01T02:17:02.147Z,10.41
2022-09-01T02:25:28.218Z,10.20
2022-09-01T02:33:54.539Z,9.91
2022-09-01T02:42:17.549Z,9.85
2022-09-01T02:50:42.017Z,9.80
2022-09-01T02:59:05.862Z,9.63
2022-09-01T03:07:29.679Z,9.57
2022-09-01T03:15:52.462Z,9.48
2022-09-01T03:24:18.568Z,9.44
2022-09-01T03:32:42.175Z,9.46
2022-09-01T03:41:06.579Z,9.42
2022-09-01T03:49:29.669Z,9.27
2022-09-01T03:57:56.066Z,9.27
2022-09-01T04:06:24.236Z,9.23
2022-09-01T04:14:48.616Z,9.15
2022-09-01T04:23:11.434Z,9.32
2022-09-01T04:31:38.105Z,9.61
2022-09-01T04:40:01.909Z,9.74
2022-09-01T04:48:29.648Z,9.82
2022-09-01T04:56:55.085Z,9.94
2022-09-01T05:05:22.739Z,10.07
2022-09-01T05:13:48.552Z,10.23
2022-09-01T05:22:13.036Z,11.20
2022-09-01T05:30:41.200Z,13.99
2022-09-01T05:39:06.322Z,16.67
2022-09-01T05:47:29.446Z,18.64
2022-09-01T05:55:57.624Z,19.93
2022-09-01T06:04:20.650Z,20.65
2022-09-01T06:12:48.643Z,21.01
2022-09-01T06:21:17.115Z,20.23
2022-09-01T06:29:41.067Z,19.14
2022-09-01T06:38:04.971Z,18.01
2022-09-01T06:46:40.614Z,17.44
2022-09-01T06:55:07.631Z,17.57
2022-09-01T07:03:34.237Z,17.92
2022-09-01T07:12:26.633Z,18.24
2022-09-01T07:21:36.553Z,18.34
2022-09-01T07:29:39.386Z,18.47
2022-09-01T07:47:19.478Z,18.61
2022-09-01T07:55:36.405Z,18.63
2022-09-01T08:04:02.478Z,18.61
2022-09-01T08:12:28.847Z,18.44
2022-09-01T08:20:52.444Z,18.54
2022-09-01T08:29:20.634Z,18.70
2022-09-01T08:37:44.487Z,18.92
2022-09-01T08:46:30.713Z,19.21
2022-09-01T08:55:02.619Z,19.61
2022-09-01T09:03:47.672Z,19.90
2022-09-01T09:12:49.078Z,19.52
2022-09-01T09:21:22.941Z,19.70
2022-09-01T09:30:11.775Z,19.81
2022-09-01T09:38:34.786Z,19.95
2022-09-01T09:46:59.121Z,19.46
2022-09-01T09:55:30.370Z,19.47
2022-09-01T10:03:57.196Z,19.83
2022-09-01T10:12:20.420Z,20.04
2022-09-01T10:21:00.560Z,20.32
2022-09-01T10:29:47.413Z,20.29
2022-09-01T10:38:21.877Z,19.99
2022-09-01T10:46:50.778Z,19.80
2022-09-01T10:55:24.961Z,19.88
2022-09-01T11:03:57.044Z,20.01
2022-09-01T11:12:54.623Z,20.15
2022-09-01T11:21:30.970Z,20.38
2022-09-01T11:30:18.464Z,20.44
2022-09-01T11:39:19.298Z,20.06
2022-09-01T11:47:50.750Z,19.65
2022-09-01T11:56:27.250Z,19.65
2022-09-01T12:04:51.823Z,19.24
2022-09-01T12:13:21.993Z,19.23
2022-09-01T12:22:17.123Z,19.63
2022-09-01T12:30:42.491Z,20.08
2022-09-01T12:39:25.869Z,20.56
2022-09-01T12:47:51.411Z,20.50
2022-09-01T12:56:26.857Z,20.17
2022-09-01T13:04:49.821Z,19.90
2022-09-01T13:13:15.047Z,19.92
2022-09-01T13:30:00.945Z,20.26
2022-09-01T13:38:24.462Z,20.20
2022-09-01T13:55:34.225Z,20.02
2022-09-01T14:04:00.432Z,19.73
2022-09-01T14:12:24.500Z,19.10
2022-09-01T14:20:51.064Z,18.93
2022-09-01T14:29:14.218Z,19.06
2022-09-01T14:37:39.631Z,19.27
2022-09-01T14:46:08.318Z,19.39
2022-09-01T14:54:31.446Z,19.46
2022-09-01T15:02:56.505Z,19.44
2022-09-01T15:11:21.385Z,19.40
2022-09-01T15:19:44.344Z,19.32
2022-09-01T15:28:07.700Z,19.24
2022-09-01T15:36:32.234Z,19.16
2022-09-01T15:44:55.404Z,19.04
2022-09-01T15:53:19.600Z,18.86
2022-09-01T16:01:46.965Z,18.63
2022-09-01T16:10:13.346Z,18.41
2022-09-01T16:18:46.787Z,18.13
2022-09-01T16:27:14.972Z,17.85
2022-09-01T16:35:53.407Z,17.61
2022-09-01T16:44:24.398Z,17.33
2022-09-01T16:52:53.627Z,17.05
2022-09-01T17:01:30.822Z,16.76
2022-09-01T17:09:56.630Z,16.44
2022-09-01T17:18:40.230Z,16.13
2022-09-01T17:27:11.427Z,15.83
2022-09-01T17:35:34.355Z,15.53
2022-09-01T17:44:30.268Z,15.23
2022-09-01T17:53:22.464Z,14.92
2022-09-01T18:02:25.559Z,14.56
2022-09-01T18:10:55.458Z,14.21
2022-09-01T18:19:26.813Z,13.91
2022-09-01T18:27:50.804Z,13.62
2022-09-01T18:36:14.530Z,13.38
2022-09-01T18:45:09.893Z,13.07
2022-09-01T18:53:51.721Z,12.62
2022-09-01T19:02:27.087Z,12.31
2022-09-01T19:11:08.665Z,12.21
2022-09-01T19:19:51.865Z,12.15
2022-09-01T19:28:43.652Z,12.01
2022-09-01T19:37:10.923Z,11.83
2022-09-01T19:45:58.282Z,11.46
2022-09-01T19:54:34.074Z,11.16
2022-09-01T20:03:08.581Z,11.09
2022-09-01T20:11:55.730Z,11.10
2022-09-01T20:20:47.559Z,11.04
2022-09-01T20:29:21.923Z,10.94
2022-09-01T20:37:58.543Z,10.88
2022-09-01T20:46:23.780Z,10.84
2022-09-01T20:54:58.180Z,10.76
2022-09-01T21:03:54.461Z,10.64
2022-09-01T21:12:35.240Z,10.53
2022-09-01T21:21:12.187Z,10.50
2022-09-01T21:29:47.430Z,10.39
2022-09-01T21:38:11.246Z,10.25
2022-09-01T21:46:35.030Z,10.24
2022-09-01T21:54:57.889Z,10.21
2022-09-01T22:03:21.004Z,10.07
2022-09-01T22:11:45.162Z,9.83
2022-09-01T22:20:11.489Z,9.68
2022-09-01T22:28:35.632Z,9.51
2022-09-01T22:36:58.568Z,9.35
2022-09-01T22:45:21.459Z,9.18
2022-09-01T22:53:46.113Z,9.13
2022-09-01T23:02:11.220Z,9.04
2022-09-01T23:10:34.184Z,8.97
2022-09-01T23:18:57.143Z,8.95
2022-09-01T23:27:19.927Z,8.86
2022-09-01T23:35:52.565Z,8.77
2022-09-01T23:44:16.110Z,8.87
2022-09-01T23:52:40.012Z,8.92
